sensor_id;sensor_type;location;lat;lon;timestamp;pressure;altitude;pressure_sealevel;temperature;humidity
61287;BME280;56412;53.148;8.204;2022-11-15T00:01:05;100982.34;;;14.34;47.40
61287;BME280;56412;53.148;8.204;2022-11-15T00:03:32;100981.53;;;14.33;47.41
61287;BME280;56412;53.148;8.204;2022-11-15T00:06:00;100983.38;;;14.31;47.53
61287;BME280;56412;53.148;8.204;2022-11-15T00:08:28;100986.19;;;14.41;47.34
61287;BME280;56412;53.148;8.204;2022-11-15T00:10:56;100973.41;;;14.25;47.50
61287;BME280;56412;53.148;8.204;2022-11-15T00:13:22;100975.16;;;14.12;48.13
61287;BME280;56412;53.148;8.204;2022-11-15T00:15:48;100969.47;;;14.06;48.27
61287;BME280;56412;53.148;8.204;2022-11-15T00:18:13;100981.84;;;14.03;48.27
61287;BME280;56412;53.148;8.204;2022-11-15T00:20:40;100980.59;;;14.08;47.84
61287;BME280;56412;53.148;8.204;2022-11-15T00:23:05;100973.94;;;14.04;48.31
61287;BME280;56412;53.148;8.204;2022-11-15T00:25:31;100982.47;;;13.94;48.62
61287;BME280;56412;53.148;8.204;2022-11-15T00:27:58;100972.69;;;13.97;48.17
61287;BME280;56412;53.148;8.204;2022-11-15T00:30:24;100975.38;;;13.96;48.46
61287;BME280;56412;53.148;8.204;2022-11-15T00:32:50;100968.09;;;14.01;48.17
61287;BME280;56412;53.148;8.204;2022-11-15T00:35:15;100982.47;;;13.94;48.41
61287;BME280;56412;53.148;8.204;2022-11-15T00:37:40;100980.59;;;13.83;48.67
61287;BME280;56412;53.148;8.204;2022-11-15T00:40:06;100983.09;;;13.84;48.20
61287;BME280;56412;53.148;8.204;2022-11-15T00:42:32;100987.47;;;13.84;48.09
61287;BME280;56412;53.148;8.204;2022-11-15T00:44:58;100984.13;;;13.69;48.67
61287;BME280;56412;53.148;8.204;2022-11-15T00:47:23;100981.22;;;13.74;48.62
61287;BME280;56412;53.148;8.204;2022-11-15T00:49:48;100978.41;;;13.77;48.47
61287;BME280;56412;53.148;8.204;2022-11-15T00:52:14;100984.53;;;13.76;48.61
61287;BME280;56412;53.148;8.204;2022-11-15T00:54:39;100979.03;;;13.80;48.17
61287;BME280;56412;53.148;8.204;2022-11-15T00:57:04;100978.22;;;13.80;48.40
61287;BME280;56412;53.148;8.204;2022-11-15T00:59:29;100980.38;;;13.73;48.38
61287;BME280;56412;53.148;8.204;2022-11-15T01:01:55;100974.75;;;13.67;48.50
61287;BME280;56412;53.148;8.204;2022-11-15T01:04:20;100976.31;;;13.69;48.72
61287;BME280;56412;53.148;8.204;2022-11-15T01:06:45;100983.59;;;13.64;48.88
61287;BME280;56412;53.148;8.204;2022-11-15T01:09:11;100984.59;;;13.49;49.13
61287;BME280;56412;53.148;8.204;2022-11-15T01:11:36;100985.34;;;13.51;49.15
61287;BME280;56412;53.148;8.204;2022-11-15T01:14:01;100923.50;;;13.14;49.01
61287;BME280;56412;53.148;8.204;2022-11-15T01:16:27;100979.19;;;13.52;48.97
61287;BME280;56412;53.148;8.204;2022-11-15T01:18:52;100972.94;;;13.42;49.17
61287;BME280;56412;53.148;8.204;2022-11-15T01:21:18;100976.16;;;13.45;49.00
61287;BME280;56412;53.148;8.204;2022-11-15T01:23:44;100967.53;;;13.57;48.63
61287;BME280;56412;53.148;8.204;2022-11-15T01:26:10;100966.59;;;13.58;48.61
61287;BME280;56412;53.148;8.204;2022-11-15T01:28:38;100962.34;;;13.57;48.36
61287;BME280;56412;53.148;8.204;2022-11-15T01:31:06;100958.91;;;13.57;48.22
61287;BME280;56412;53.148;8.204;2022-11-15T01:33:37;100957.97;;;13.58;48.07
61287;BME280;56412;53.148;8.204;2022-11-15T01:36:03;100947.69;;;13.56;48.15
61287;BME280;56412;53.148;8.204;2022-11-15T01:38:30;100945.78;;;13.58;48.28
61287;BME280;56412;53.148;8.204;2022-11-15T01:40:55;100937.16;;;13.58;48.14
61287;BME280;56412;53.148;8.204;2022-11-15T01:43:28;100937.34;;;13.55;48.14
61287;BME280;56412;53.148;8.204;2022-11-15T01:46:22;100941.09;;;13.51;47.88
61287;BME280;56412;53.148;8.204;2022-11-15T01:48:43;100936.19;;;13.46;48.25
61287;BME280;56412;53.148;8.204;2022-11-15T01:51:09;100929.53;;;13.42;48.36
61287;BME280;56412;53.148;8.204;2022-11-15T01:53:38;100919.22;;;13.40;48.30
61287;BME280;56412;53.148;8.204;2022-11-15T01:56:08;100922.97;;;13.36;48.33
61287;BME280;56412;53.148;8.204;2022-11-15T01:58:38;100919.09;;;13.29;48.25
61287;BME280;56412;53.148;8.204;2022-11-15T02:01:05;100926.06;;;13.29;48.24
61287;BME280;56412;53.148;8.204;2022-11-15T02:03:34;100914.84;;;13.28;48.56
61287;BME280;56412;53.148;8.204;2022-11-15T02:06:06;100906.63;;;13.34;48.53
61287;BME280;56412;53.148;8.204;2022-11-15T02:08:32;100919.44;;;13.37;48.50
61287;BME280;56412;53.148;8.204;2022-11-15T02:10:58;100917.34;;;13.43;48.35
61287;BME280;56412;53.148;8.204;2022-11-15T02:13:23;100906.66;;;13.47;48.31
61287;BME280;56412;53.148;8.204;2022-11-15T02:15:52;100899.25;;;13.54;48.44
61287;BME280;56412;53.148;8.204;2022-11-15T02:18:27;100890.81;;;13.63;48.24
61287;BME280;56412;53.148;8.204;2022-11-15T02:26:51;100903.13;;;13.74;47.95
61287;BME280;56412;53.148;8.204;2022-11-15T02:37:43;100892.56;;;13.88;48.14
61287;BME280;56412;53.148;8.204;2022-11-15T02:42:54;100892.34;;;13.91;48.14
61287;BME280;56412;53.148;8.204;2022-11-15T02:45:50;100887.69;;;13.83;47.93
61287;BME280;56412;53.148;8.204;2022-11-15T02:48:19;100887.78;;;13.95;47.70
61287;BME280;56412;53.148;8.204;2022-11-15T02:50:47;100890.72;;;13.90;48.06
61287;BME280;56412;53.148;8.204;2022-11-15T02:53:13;100884.66;;;14.02;47.73
61287;BME280;56412;53.148;8.204;2022-11-15T02:55:46;100887.69;;;14.09;47.88
61287;BME280;56412;53.148;8.204;2022-11-15T03:07:06;100884.50;;;14.17;47.84
61287;BME280;56412;53.148;8.204;2022-11-15T03:09:55;100877.66;;;14.16;48.00
61287;BME280;56412;53.148;8.204;2022-11-15T03:15:21;100890.56;;;14.17;48.15
61287;BME280;56412;53.148;8.204;2022-11-15T03:20:35;100892.84;;;14.22;47.74
61287;BME280;56412;53.148;8.204;2022-11-15T03:23:05;100880.72;;;14.34;47.89
61287;BME280;56412;53.148;8.204;2022-11-15T03:25:34;100878.63;;;14.39;47.51
61287;BME280;56412;53.148;8.204;2022-11-15T03:28:02;100878.41;;;14.42;47.71
61287;BME280;56412;53.148;8.204;2022-11-15T03:30:32;100875.59;;;14.45;48.25
61287;BME280;56412;53.148;8.204;2022-11-15T03:33:00;100870.38;;;14.45;48.11
61287;BME280;56412;53.148;8.204;2022-11-15T03:35:30;100864.81;;;14.49;47.79
61287;BME280;56412;53.148;8.204;2022-11-15T03:38:04;100872.97;;;14.45;48.34
61287;BME280;56412;53.148;8.204;2022-11-15T03:40:38;100871.69;;;14.63;47.54
61287;BME280;56412;53.148;8.204;2022-11-15T03:43:20;100860.94;;;14.68;47.53
61287;BME280;56412;53.148;8.204;2022-11-15T03:45:56;100853.38;;;14.76;47.74
61287;BME280;56412;53.148;8.204;2022-11-15T03:48:30;100855.66;;;14.81;47.56
61287;BME280;56412;53.148;8.204;2022-11-15T03:51:00;100859.22;;;14.80;47.50
61287;BME280;56412;53.148;8.204;2022-11-15T03:53:27;100859.69;;;14.85;47.43
61287;BME280;56412;53.148;8.204;2022-11-15T03:55:53;100865.53;;;14.88;47.45
61287;BME280;56412;53.148;8.204;2022-11-15T03:58:18;100857.47;;;14.91;47.75
61287;BME280;56412;53.148;8.204;2022-11-15T04:00:44;100857.13;;;14.96;47.70
61287;BME280;56412;53.148;8.204;2022-11-15T04:03:09;100855.97;;;15.00;47.51
61287;BME280;56412;53.148;8.204;2022-11-15T04:05:34;100863.56;;;15.03;47.69
61287;BME280;56412;53.148;8.204;2022-11-15T04:07:59;100857.03;;;14.97;47.65
61287;BME280;56412;53.148;8.204;2022-11-15T04:10:25;100857.63;;;15.01;47.51
61287;BME280;56412;53.148;8.204;2022-11-15T04:12:50;100862.38;;;15.07;47.61
61287;BME280;56412;53.148;8.204;2022-11-15T04:15:20;100856.09;;;15.10;47.42
61287;BME280;56412;53.148;8.204;2022-11-15T04:22:58;100854.09;;;15.13;47.49
61287;BME280;56412;53.148;8.204;2022-11-15T04:25:42;100851.97;;;15.18;47.62
61287;BME280;56412;53.148;8.204;2022-11-15T04:28:08;100855.50;;;15.17;47.73
61287;BME280;56412;53.148;8.204;2022-11-15T04:30:34;100855.28;;;15.20;47.42
61287;BME280;56412;53.148;8.204;2022-11-15T04:32:59;100855.78;;;15.26;47.33
61287;BME280;56412;53.148;8.204;2022-11-15T04:35:24;100858.28;;;15.27;47.58
61287;BME280;56412;53.148;8.204;2022-11-15T04:37:50;100858.06;;;15.30;47.73
61287;BME280;56412;53.148;8.204;2022-11-15T04:40:15;100865.28;;;15.27;47.47
61287;BME280;56412;53.148;8.204;2022-11-15T04:42:41;100863.63;;;15.37;47.35
61287;BME280;56412;53.148;8.204;2022-11-15T04:45:10;100867.66;;;15.41;47.40
61287;BME280;56412;53.148;8.204;2022-11-15T04:47:35;100858.31;;;15.38;47.45
61287;BME280;56412;53.148;8.204;2022-11-15T04:50:01;100864.94;;;15.42;47.37
61287;BME280;56412;53.148;8.204;2022-11-15T04:52:27;100871.59;;;15.47;47.32
61287;BME280;56412;53.148;8.204;2022-11-15T04:54:52;100865.91;;;15.41;47.68
61287;BME280;56412;53.148;8.204;2022-11-15T04:57:17;100863.88;;;15.34;48.01
61287;BME280;56412;53.148;8.204;2022-11-15T04:59:43;100862.59;;;15.51;47.44
61287;BME280;56412;53.148;8.204;2022-11-15T05:02:08;100860.22;;;15.48;47.76
61287;BME280;56412;53.148;8.204;2022-11-15T05:04:33;100860.09;;;15.49;48.17
61287;BME280;56412;53.148;8.204;2022-11-15T05:06:59;100856.06;;;15.56;47.83
61287;BME280;56412;53.148;8.204;2022-11-15T05:09:24;100857.78;;;15.69;47.32
61287;BME280;56412;53.148;8.204;2022-11-15T05:11:49;100856.44;;;15.63;48.21
61287;BME280;56412;53.148;8.204;2022-11-15T05:14:15;100855.13;;;15.57;48.09
61287;BME280;56412;53.148;8.204;2022-11-15T05:16:41;100856.72;;;15.71;47.78
61287;BME280;56412;53.148;8.204;2022-11-15T05:19:07;100847.34;;;15.80;47.51
61287;BME280;56412;53.148;8.204;2022-11-15T05:21:32;100858.38;;;15.83;47.66
61287;BME280;56412;53.148;8.204;2022-11-15T05:23:58;100853.47;;;15.79;47.89
61287;BME280;56412;53.148;8.204;2022-11-15T05:26:23;100845.16;;;15.85;47.74
61287;BME280;56412;53.148;8.204;2022-11-15T05:28:53;100841.38;;;15.89;47.85
61287;BME280;56412;53.148;8.204;2022-11-15T05:31:20;100842.69;;;15.95;47.66
61287;BME280;56412;53.148;8.204;2022-11-15T05:33:45;100837.72;;;15.92;47.76
61287;BME280;56412;53.148;8.204;2022-11-15T05:38:50;100847.44;;;15.89;48.29
61287;BME280;56412;53.148;8.204;2022-11-15T05:41:16;100840.41;;;16.01;48.06
61287;BME280;56412;53.148;8.204;2022-11-15T05:43:45;100837.56;;;15.93;47.88
61287;BME280;56412;53.148;8.204;2022-11-15T05:46:13;100834.72;;;16.07;47.74
61287;BME280;56412;53.148;8.204;2022-11-15T05:48:39;100835.88;;;16.15;47.81
61287;BME280;56412;53.148;8.204;2022-11-15T05:51:07;100842.41;;;16.20;47.65
61287;BME280;56412;53.148;8.204;2022-11-15T05:53:33;100840.16;;;16.16;47.94
61287;BME280;56412;53.148;8.204;2022-11-15T05:55:59;100841.91;;;16.26;47.55
61287;BME280;56412;53.148;8.204;2022-11-15T05:58:28;100845.00;;;16.31;47.69
61287;BME280;56412;53.148;8.204;2022-11-15T06:00:53;100851.91;;;16.32;47.56
61287;BME280;56412;53.148;8.204;2022-11-15T06:03:19;100859.75;;;16.32;47.63
61287;BME280;56412;53.148;8.204;2022-11-15T06:05:44;100856.75;;;16.26;48.00
61287;BME280;56412;53.148;8.204;2022-11-15T06:08:10;100854.72;;;16.29;47.72
61287;BME280;56412;53.148;8.204;2022-11-15T06:10:35;100844.28;;;16.29;48.00
61287;BME280;56412;53.148;8.204;2022-11-15T06:13:01;100851.31;;;16.18;48.23
61287;BME280;56412;53.148;8.204;2022-11-15T06:15:28;100849.03;;;16.35;47.92
61287;BME280;56412;53.148;8.204;2022-11-15T06:17:56;100859.25;;;16.39;47.88
61287;BME280;56412;53.148;8.204;2022-11-15T06:20:22;100861.22;;;16.46;48.01
61287;BME280;56412;53.148;8.204;2022-11-15T06:22:49;100854.09;;;16.48;47.90
61287;BME280;56412;53.148;8.204;2022-11-15T06:25:14;100854.59;;;16.42;48.27
61287;BME280;56412;53.148;8.204;2022-11-15T06:27:39;100853.97;;;16.50;48.06
61287;BME280;56412;53.148;8.204;2022-11-15T06:30:05;100852.63;;;16.55;47.92
61287;BME280;56412;53.148;8.204;2022-11-15T06:32:30;100853.03;;;16.51;48.21
61287;BME280;56412;53.148;8.204;2022-11-15T06:34:56;100857.00;;;16.66;47.90
61287;BME280;56412;53.148;8.204;2022-11-15T06:37:21;100848.44;;;16.64;47.97
61287;BME280;56412;53.148;8.204;2022-11-15T06:39:46;100854.28;;;16.68;48.02
61287;BME280;56412;53.148;8.204;2022-11-15T06:42:12;100851.88;;;16.76;47.89
61287;BME280;56412;53.148;8.204;2022-11-15T06:44:37;100852.22;;;16.83;47.82
61287;BME280;56412;53.148;8.204;2022-11-15T06:47:02;100850.75;;;16.90;47.57
61287;BME280;56412;53.148;8.204;2022-11-15T06:49:27;100859.44;;;16.90;47.83
61287;BME280;56412;53.148;8.204;2022-11-15T06:51:53;100866.72;;;16.87;48.10
61287;BME280;56412;53.148;8.204;2022-11-15T06:54:18;100873.81;;;16.96;47.98
61287;BME280;56412;53.148;8.204;2022-11-15T06:56:43;100875.59;;;16.95;48.13
61287;BME280;56412;53.148;8.204;2022-11-15T06:59:08;100880.78;;;17.07;47.67
61287;BME280;56412;53.148;8.204;2022-11-15T07:01:34;100876.47;;;17.06;47.74
61287;BME280;56412;53.148;8.204;2022-11-15T07:03:59;100872.78;;;17.08;47.94
61287;BME280;56412;53.148;8.204;2022-11-15T07:06:24;100880.28;;;17.13;47.73
61287;BME280;56412;53.148;8.204;2022-11-15T07:08:50;100875.75;;;17.15;47.80
61287;BME280;56412;53.148;8.204;2022-11-15T07:11:15;100880.47;;;17.21;47.76
61287;BME280;56412;53.148;8.204;2022-11-15T07:13:40;100886.53;;;17.21;47.67
61287;BME280;56412;53.148;8.204;2022-11-15T07:16:06;100887.94;;;17.25;47.64
61287;BME280;56412;53.148;8.204;2022-11-15T07:18:37;100886.91;;;17.17;47.69
61287;BME280;56412;53.148;8.204;2022-11-15T07:21:04;100888.56;;;17.18;47.92
61287;BME280;56412;53.148;8.204;2022-11-15T07:23:31;100877.09;;;17.30;47.70
61287;BME280;56412;53.148;8.204;2022-11-15T07:25:57;100878.47;;;17.34;47.54
61287;BME280;56412;53.148;8.204;2022-11-15T07:28:23;100878.47;;;17.34;47.48
61287;BME280;56412;53.148;8.204;2022-11-15T07:30:50;100874.41;;;17.41;47.41
61287;BME280;56412;53.148;8.204;2022-11-15T07:33:15;100878.41;;;17.45;47.55
61287;BME280;56412;53.148;8.204;2022-11-15T07:35:40;100871.53;;;17.44;47.41
61287;BME280;56412;53.148;8.204;2022-11-15T07:38:07;100876.56;;;17.36;47.67
61287;BME280;56412;53.148;8.204;2022-11-15T07:40:33;100877.44;;;17.46;47.57
61287;BME280;56412;53.148;8.204;2022-11-15T07:43:02;100876.09;;;17.52;47.37
61287;BME280;56412;53.148;8.204;2022-11-15T07:45:29;100876.81;;;17.54;47.28
61287;BME280;56412;53.148;8.204;2022-11-15T07:47:55;100879.28;;;17.56;47.21
61287;BME280;56412;53.148;8.204;2022-11-15T07:50:22;100880.81;;;17.58;47.25
61287;BME280;56412;53.148;8.204;2022-11-15T07:52:52;100873.66;;;17.60;47.24
61287;BME280;56412;53.148;8.204;2022-11-15T07:55:18;100869.22;;;17.51;47.35
61287;BME280;56412;53.148;8.204;2022-11-15T07:57:44;100865.88;;;17.49;47.64
61287;BME280;56412;53.148;8.204;2022-11-15T08:00:09;100866.09;;;17.36;47.75
61287;BME280;56412;53.148;8.204;2022-11-15T08:02:35;100866.81;;;17.38;47.97
61287;BME280;56412;53.148;8.204;2022-11-15T08:05:00;100872.66;;;17.31;48.39
61287;BME280;56412;53.148;8.204;2022-11-15T08:07:28;100871.19;;;17.38;48.25
61287;BME280;56412;53.148;8.204;2022-11-15T08:09:55;100865.75;;;17.51;47.98
61287;BME280;56412;53.148;8.204;2022-11-15T08:12:21;100869.06;;;17.53;47.76
61287;BME280;56412;53.148;8.204;2022-11-15T08:14:46;100863.72;;;17.54;47.90
61287;BME280;56412;53.148;8.204;2022-11-15T08:17:11;100861.72;;;17.46;48.15
61287;BME280;56412;53.148;8.204;2022-11-15T08:19:37;100867.59;;;17.60;47.89
61287;BME280;56412;53.148;8.204;2022-11-15T08:22:02;100869.25;;;17.61;47.99
61287;BME280;56412;53.148;8.204;2022-11-15T08:24:27;100866.78;;;17.59;47.87
61287;BME280;56412;53.148;8.204;2022-11-15T08:26:52;100869.25;;;17.61;47.98
61287;BME280;56412;53.148;8.204;2022-11-15T08:29:18;100866.53;;;17.72;47.90
61287;BME280;56412;53.148;8.204;2022-11-15T08:31:43;100871.53;;;17.44;48.65
61287;BME280;56412;53.148;8.204;2022-11-15T08:34:08;100871.91;;;17.70;48.08
61287;BME280;56412;53.148;8.204;2022-11-15T08:36:33;100885.31;;;17.77;48.14
61287;BME280;56412;53.148;8.204;2022-11-15T08:38:59;100883.41;;;17.79;48.07
61287;BME280;56412;53.148;8.204;2022-11-15T08:41:25;100874.34;;;17.83;47.86
61287;BME280;56412;53.148;8.204;2022-11-15T08:43:55;100875.88;;;17.86;47.61
61287;BME280;56412;53.148;8.204;2022-11-15T08:46:20;100873.81;;;17.89;48.00
61287;BME280;56412;53.148;8.204;2022-11-15T08:48:45;100887.56;;;17.82;48.13
61287;BME280;56412;53.148;8.204;2022-11-15T08:51:10;100891.47;;;17.87;47.95
61287;BME280;56412;53.148;8.204;2022-11-15T08:53:36;100882.91;;;17.85;48.11
61287;BME280;56412;53.148;8.204;2022-11-15T08:56:01;100888.19;;;17.95;47.91
61287;BME280;56412;53.148;8.204;2022-11-15T08:58:27;100891.72;;;17.63;48.63
61287;BME280;56412;53.148;8.204;2022-11-15T09:00:52;100886.88;;;17.59;48.81
61287;BME280;56412;53.148;8.204;2022-11-15T09:03:17;100889.69;;;17.67;48.51
61287;BME280;56412;53.148;8.204;2022-11-15T09:05:44;100882.97;;;17.74;48.61
61287;BME280;56412;53.148;8.204;2022-11-15T09:08:09;100882.25;;;17.72;48.68
61287;BME280;56412;53.148;8.204;2022-11-15T09:10:35;100876.66;;;17.77;48.64
61287;BME280;56412;53.148;8.204;2022-11-15T09:13:01;100877.59;;;17.76;48.80
61287;BME280;56412;53.148;8.204;2022-11-15T09:15:26;100877.47;;;17.77;48.81
61287;BME280;56412;53.148;8.204;2022-11-15T09:17:52;100881.25;;;17.84;48.71
61287;BME280;56412;53.148;8.204;2022-11-15T09:20:17;100864.34;;;17.98;48.62
61287;BME280;56412;53.148;8.204;2022-11-15T09:22:42;100869.47;;;18.09;48.51
61287;BME280;56412;53.148;8.204;2022-11-15T09:25:08;100869.88;;;18.14;48.45
61287;BME280;56412;53.148;8.204;2022-11-15T09:27:33;100872.25;;;18.17;48.25
61287;BME280;56412;53.148;8.204;2022-11-15T09:29:59;100875.72;;;18.18;48.39
61287;BME280;56412;53.148;8.204;2022-11-15T09:32:27;100871.16;;;18.20;48.16
61287;BME280;56412;53.148;8.204;2022-11-15T09:34:53;100864.81;;;18.23;48.30
61287;BME280;56412;53.148;8.204;2022-11-15T09:37:18;100865.78;;;18.31;47.93
61287;BME280;56412;53.148;8.204;2022-11-15T09:39:44;100871.03;;;18.31;48.15
61287;BME280;56412;53.148;8.204;2022-11-15T09:50:27;100861.09;;;18.25;48.53
61287;BME280;56412;53.148;8.204;2022-11-15T09:53:03;100864.41;;;18.27;48.44
61287;BME280;56412;53.148;8.204;2022-11-15T09:55:33;100866.44;;;18.14;48.71
61287;BME280;56412;53.148;8.204;2022-11-15T09:58:12;100862.88;;;18.25;48.69
61287;BME280;56412;53.148;8.204;2022-11-15T10:00:47;100864.38;;;18.17;48.81
61287;BME280;56412;53.148;8.204;2022-11-15T10:03:30;100860.66;;;18.20;48.98
61287;BME280;56412;53.148;8.204;2022-11-15T10:06:00;100855.72;;;18.27;48.79
61287;BME280;56412;53.148;8.204;2022-11-15T10:11:22;100852.03;;;18.49;48.19
61287;BME280;56412;53.148;8.204;2022-11-15T10:13:51;100847.88;;;18.56;48.19
61287;BME280;56412;53.148;8.204;2022-11-15T10:19:08;100839.91;;;18.77;47.79
61287;BME280;56412;53.148;8.204;2022-11-15T10:24:25;100836.16;;;18.99;47.23
61287;BME280;56412;53.148;8.204;2022-11-15T10:26:53;100831.03;;;19.07;47.27
61287;BME280;56412;53.148;8.204;2022-11-15T10:29:20;100833.66;;;19.07;47.17
61287;BME280;56412;53.148;8.204;2022-11-15T10:31:47;100835.84;;;19.12;47.24
61287;BME280;56412;53.148;8.204;2022-11-15T10:34:13;100820.16;;;18.92;47.55
61287;BME280;56412;53.148;8.204;2022-11-15T10:36:47;100820.28;;;19.00;47.17
61287;BME280;56412;53.148;8.204;2022-11-15T10:39:20;100825.78;;;19.07;47.10
61287;BME280;56412;53.148;8.204;2022-11-15T10:41:45;100824.28;;;18.95;47.63
61287;BME280;56412;53.148;8.204;2022-11-15T10:47:04;100808.78;;;19.21;46.81
61287;BME280;56412;53.148;8.204;2022-11-15T10:49:32;100809.97;;;19.36;46.51
61287;BME280;56412;53.148;8.204;2022-11-15T10:52:02;100803.53;;;19.21;46.79
61287;BME280;56412;53.148;8.204;2022-11-15T10:54:40;100804.56;;;19.38;46.53
61287;BME280;56412;53.148;8.204;2022-11-15T10:57:12;100785.34;;;19.37;46.62
61287;BME280;56412;53.148;8.204;2022-11-15T10:59:43;100788.25;;;19.34;46.63
61287;BME280;56412;53.148;8.204;2022-11-15T11:02:25;100787.97;;;19.37;46.55
61287;BME280;56412;53.148;8.204;2022-11-15T11:04:52;100782.38;;;19.50;46.40
61287;BME280;56412;53.148;8.204;2022-11-15T11:07:22;100775.97;;;19.62;46.11
61287;BME280;56412;53.148;8.204;2022-11-15T11:09:58;100776.16;;;19.51;46.44
61287;BME280;56412;53.148;8.204;2022-11-15T11:12:30;100777.75;;;19.62;46.29
61287;BME280;56412;53.148;8.204;2022-11-15T11:15:02;100767.38;;;19.70;46.09
61287;BME280;56412;53.148;8.204;2022-11-15T11:20:40;100765.09;;;19.85;45.85
61287;BME280;56412;53.148;8.204;2022-11-15T11:23:18;100771.16;;;19.85;46.12
61287;BME280;56412;53.148;8.204;2022-11-15T11:28:55;100771.34;;;20.19;45.11
61287;BME280;56412;53.148;8.204;2022-11-15T11:34:29;100767.09;;;20.18;45.11
61287;BME280;56412;53.148;8.204;2022-11-15T11:37:19;100765.50;;;20.26;44.98
61287;BME280;56412;53.148;8.204;2022-11-15T11:42:46;100765.97;;;20.39;44.67
61287;BME280;56412;53.148;8.204;2022-11-15T11:48:04;100759.09;;;20.28;45.04
61287;BME280;56412;53.148;8.204;2022-11-15T11:56:43;100752.66;;;20.58;44.20
61287;BME280;56412;53.148;8.204;2022-11-15T11:59:14;100744.44;;;20.61;44.29
61287;BME280;56412;53.148;8.204;2022-11-15T12:01:46;100752.66;;;20.58;44.16
61287;BME280;56412;53.148;8.204;2022-11-15T12:04:14;100748.88;;;20.61;44.28
61287;BME280;56412;53.148;8.204;2022-11-15T12:06:50;100746.25;;;20.25;44.23
61287;BME280;56412;53.148;8.204;2022-11-15T12:12:00;100729.44;;;20.18;44.55
61287;BME280;56412;53.148;8.204;2022-11-15T12:14:43;100725.38;;;20.24;44.37
61287;BME280;56412;53.148;8.204;2022-11-15T12:17:13;100718.13;;;20.61;43.91
61287;BME280;56412;53.148;8.204;2022-11-15T12:19:41;100719.75;;;20.80;43.24
61287;BME280;56412;53.148;8.204;2022-11-15T12:22:19;100721.63;;;20.96;42.79
61287;BME280;56412;53.148;8.204;2022-11-15T12:25:02;100722.06;;;20.83;43.23
61287;BME280;56412;53.148;8.204;2022-11-15T12:27:47;100718.44;;;20.84;43.11
61287;BME280;56412;53.148;8.204;2022-11-15T12:30:20;100714.16;;;20.83;43.06
61287;BME280;56412;53.148;8.204;2022-11-15T12:32:57;100712.91;;;20.70;43.33
61287;BME280;56412;53.148;8.204;2022-11-15T12:35:41;100715.56;;;20.52;43.69
61287;BME280;56412;53.148;8.204;2022-11-15T12:38:11;100710.97;;;20.98;42.86
61287;BME280;56412;53.148;8.204;2022-11-15T12:40:38;100695.44;;;21.21;41.15
61287;BME280;56412;53.148;8.204;2022-11-15T12:43:38;100695.31;;;22.06;40.53
61287;BME280;56412;53.148;8.204;2022-11-15T12:46:05;100688.72;;;22.67;38.49
61287;BME280;56412;53.148;8.204;2022-11-15T12:51:02;100690.38;;;22.68;37.66
61287;BME280;56412;53.148;8.204;2022-11-15T12:53:32;100684.13;;;22.53;37.41
61287;BME280;56412;53.148;8.204;2022-11-15T13:06:59;100687.69;;;25.00;34.93
61287;BME280;56412;53.148;8.204;2022-11-15T13:11:54;100689.06;;;24.96;33.95
61287;BME280;56412;53.148;8.204;2022-11-15T13:17:02;100692.75;;;23.81;34.85
61287;BME280;56412;53.148;8.204;2022-11-15T13:19:46;100691.91;;;23.49;35.51
61287;BME280;56412;53.148;8.204;2022-11-15T13:22:13;100701.22;;;22.89;36.01
61287;BME280;56412;53.148;8.204;2022-11-15T13:24:58;100692.25;;;22.27;36.68
61287;BME280;56412;53.148;8.204;2022-11-15T13:27:25;100689.09;;;22.23;37.02
61287;BME280;56412;53.148;8.204;2022-11-15T13:29:51;100689.19;;;23.26;36.32
61287;BME280;56412;53.148;8.204;2022-11-15T13:32:17;100694.09;;;24.00;34.61
61287;BME280;56412;53.148;8.204;2022-11-15T13:34:43;100691.81;;;24.58;33.27
61287;BME280;56412;53.148;8.204;2022-11-15T13:37:26;100682.03;;;24.88;32.43
61287;BME280;56412;53.148;8.204;2022-11-15T13:39:54;100683.38;;;25.65;32.20
61287;BME280;56412;53.148;8.204;2022-11-15T13:42:34;100685.66;;;26.32;30.76
61287;BME280;56412;53.148;8.204;2022-11-15T13:45:00;100675.84;;;26.54;31.10
61287;BME280;56412;53.148;8.204;2022-11-15T13:47:29;100675.47;;;26.08;30.33
61287;BME280;56412;53.148;8.204;2022-11-15T13:49:58;100687.16;;;25.34;31.24
61287;BME280;56412;53.148;8.204;2022-11-15T13:52:27;100688.81;;;24.38;31.67
61287;BME280;56412;53.148;8.204;2022-11-15T13:54:58;100673.22;;;24.05;32.21
61287;BME280;56412;53.148;8.204;2022-11-15T13:57:40;100670.06;;;23.55;33.09
61287;BME280;56412;53.148;8.204;2022-11-15T14:00:25;100671.75;;;23.48;32.76
61287;BME280;56412;53.148;8.204;2022-11-15T14:03:07;100665.56;;;23.33;32.93
61287;BME280;56412;53.148;8.204;2022-11-15T14:06:09;100662.06;;;23.09;33.33
61287;BME280;56412;53.148;8.204;2022-11-15T14:08:42;100654.59;;;23.13;33.45
61287;BME280;56412;53.148;8.204;2022-11-15T14:11:22;100655.31;;;22.99;33.25
61287;BME280;56412;53.148;8.204;2022-11-15T14:16:33;100645.91;;;22.96;33.68
61287;BME280;56412;53.148;8.204;2022-11-15T14:19:00;100647.47;;;22.74;33.92
61287;BME280;56412;53.148;8.204;2022-11-15T14:21:25;100651.66;;;22.36;34.35
61287;BME280;56412;53.148;8.204;2022-11-15T14:23:50;100656.44;;;22.16;34.96
61287;BME280;56412;53.148;8.204;2022-11-15T14:26:27;100663.34;;;22.00;34.92
61287;BME280;56412;53.148;8.204;2022-11-15T14:28:54;100659.38;;;21.88;35.65
61287;BME280;56412;53.148;8.204;2022-11-15T14:31:19;100654.44;;;21.77;35.56
61287;BME280;56412;53.148;8.204;2022-11-15T14:33:46;100649.47;;;21.66;35.66
61287;BME280;56412;53.148;8.204;2022-11-15T14:36:12;100651.91;;;21.51;35.66
61287;BME280;56412;53.148;8.204;2022-11-15T14:38:40;100650.25;;;21.42;36.16
61287;BME280;56412;53.148;8.204;2022-11-15T14:41:28;100647.72;;;21.32;36.20